sensor_id;sensor_type;location;lat;lon;timestamp;pressure;altitude;pressure_sealevel;temperature;humidity
75629;BME280;64213;46.452;16.994;2023-02-18T00:02:11;100567.88;;;7.55;74.12
75629;BME280;64213;46.452;16.994;2023-02-18T00:05:14;100560.81;;;7.55;74.19
75629;BME280;64213;46.452;16.994;2023-02-18T00:08:16;100562.87;;;7.49;74.36
75629;BME280;64213;46.452;16.994;2023-02-18T00:11:20;100559.59;;;7.43;74.98
75629;BME280;64213;46.452;16.994;2023-02-18T00:14:22;100557.28;;;7.36;74.94
75629;BME280;64213;46.452;16.994;2023-02-18T00:17:25;100550.44;;;7.32;75.10
75629;BME280;64213;46.452;16.994;2023-02-18T00:20:28;100549.84;;;7.25;75.29
75629;BME280;64213;46.452;16.994;2023-02-18T00:23:30;100546.50;;;7.21;75.43
75629;BME280;64213;46.452;16.994;2023-02-18T00:26:34;100554.38;;;7.21;75.77
75629;BME280;64213;46.452;16.994;2023-02-18T00:29:36;100553.59;;;7.19;75.47
75629;BME280;64213;46.452;16.994;2023-02-18T00:32:39;100561.59;;;7.16;75.78
75629;BME280;64213;46.452;16.994;2023-02-18T00:35:41;100561.81;;;7.12;76.30
75629;BME280;64213;46.452;16.994;2023-02-18T00:38:52;100571.56;;;7.08;76.33
75629;BME280;64213;46.452;16.994;2023-02-18T00:41:55;100568.22;;;7.05;76.33
75629;BME280;64213;46.452;16.994;2023-02-18T00:44:57;100573.69;;;7.00;76.61
75629;BME280;64213;46.452;16.994;2023-02-18T00:48:00;100574.66;;;6.97;76.69
75629;BME280;64213;46.452;16.994;2023-02-18T00:51:03;100573.84;;;6.95;76.84
75629;BME280;64213;46.452;16.994;2023-02-18T00:54:08;100562.72;;;6.89;77.14
75629;BME280;64213;46.452;16.994;2023-02-18T00:57:10;100568.91;;;6.88;77.57
75629;BME280;64213;46.452;16.994;2023-02-18T01:00:13;100573.13;;;6.92;77.02
75629;BME280;64213;46.452;16.994;2023-02-18T01:03:16;100563.53;;;6.91;77.31
75629;BME280;64213;46.452;16.994;2023-02-18T01:06:19;100559.59;;;6.79;77.36
75629;BME280;64213;46.452;16.994;2023-02-18T01:09:23;100568.06;;;6.87;77.28
75629;BME280;64213;46.452;16.994;2023-02-18T01:12:26;100561.94;;;6.87;77.05
75629;BME280;64213;46.452;16.994;2023-02-18T01:15:29;100572.47;;;6.87;77.40
75629;BME280;64213;46.452;16.994;2023-02-18T01:18:32;100570.50;;;6.92;77.21
75629;BME280;64213;46.452;16.994;2023-02-18T01:21:35;100560.78;;;6.94;77.40
75629;BME280;64213;46.452;16.994;2023-02-18T01:24:37;100570.31;;;6.96;77.36
75629;BME280;64213;46.452;16.994;2023-02-18T01:27:40;100555.37;;;6.97;77.38
75629;BME280;64213;46.452;16.994;2023-02-18T01:30:43;100560.78;;;6.94;77.29
75629;BME280;64213;46.452;16.994;2023-02-18T01:33:45;100556.38;;;6.94;77.35
75629;BME280;64213;46.452;16.994;2023-02-18T01:36:48;100562.47;;;6.95;77.56
75629;BME280;64213;46.452;16.994;2023-02-18T01:39:50;100552.88;;;6.94;77.57
75629;BME280;64213;46.452;16.994;2023-02-18T01:42:53;100557.22;;;6.95;77.55
75629;BME280;64213;46.452;16.994;2023-02-18T01:46:11;100562.59;;;6.92;77.65
75629;BME280;64213;46.452;16.994;2023-02-18T01:49:27;100555.87;;;6.85;77.81
75629;BME280;64213;46.452;16.994;2023-02-18T01:52:31;100548.06;;;6.83;77.84
75629;BME280;64213;46.452;16.994;2023-02-18T01:55:34;100547.34;;;6.80;78.16
75629;BME280;64213;46.452;16.994;2023-02-18T01:58:38;100536.03;;;6.78;78.31
75629;BME280;64213;46.452;16.994;2023-02-18T02:01:43;100544.03;;;6.74;78.54
75629;BME280;64213;46.452;16.994;2023-02-18T02:04:46;100547.59;;;6.73;78.53
75629;BME280;64213;46.452;16.994;2023-02-18T02:11:28;100540.22;;;6.60;78.82
75629;BME280;64213;46.452;16.994;2023-02-18T02:15:00;100540.31;;;6.58;79.01
75629;BME280;64213;46.452;16.994;2023-02-18T02:35:10;100521.41;;;6.48;79.82
75629;BME280;64213;46.452;16.994;2023-02-18T02:41:53;100515.44;;;6.45;79.71
75629;BME280;64213;46.452;16.994;2023-02-18T02:45:10;100520.69;;;6.45;79.48
75629;BME280;64213;46.452;16.994;2023-02-18T02:48:43;100523.34;;;6.43;79.64
75629;BME280;64213;46.452;16.994;2023-02-18T02:52:02;100524.22;;;6.44;80.00
75629;BME280;64213;46.452;16.994;2023-02-18T02:55:10;100517.38;;;6.40;79.96
75629;BME280;64213;46.452;16.994;2023-02-18T02:58:18;100520.06;;;6.38;80.09
75629;BME280;64213;46.452;16.994;2023-02-18T03:04:45;100522.88;;;6.34;80.20
75629;BME280;64213;46.452;16.994;2023-02-18T03:11:09;100517.69;;;6.32;80.57
75629;BME280;64213;46.452;16.994;2023-02-18T03:20:56;100516.13;;;6.26;80.59
75629;BME280;64213;46.452;16.994;2023-02-18T03:24:09;100519.63;;;6.27;80.66
75629;BME280;64213;46.452;16.994;2023-02-18T03:27:31;100511.84;;;6.24;80.65
75629;BME280;64213;46.452;16.994;2023-02-18T03:30:46;100515.44;;;6.21;80.82
75629;BME280;64213;46.452;16.994;2023-02-18T03:34:01;100517.22;;;6.21;81.04
75629;BME280;64213;46.452;16.994;2023-02-18T03:37:08;100517.19;;;6.22;81.08
75629;BME280;64213;46.452;16.994;2023-02-18T03:40:11;100520.78;;;6.20;81.05
75629;BME280;64213;46.452;16.994;2023-02-18T03:43:14;100512.03;;;6.19;81.01
75629;BME280;64213;46.452;16.994;2023-02-18T03:46:16;100511.97;;;6.21;81.08
75629;BME280;64213;46.452;16.994;2023-02-18T03:49:19;100518.94;;;6.22;81.07
75629;BME280;64213;46.452;16.994;2023-02-18T03:52:22;100519.94;;;6.19;81.04
75629;BME280;64213;46.452;16.994;2023-02-18T03:55:24;100526.88;;;6.20;81.16
75629;BME280;64213;46.452;16.994;2023-02-18T03:58:26;100531.22;;;6.21;81.14
75629;BME280;64213;46.452;16.994;2023-02-18T04:01:29;100532.03;;;6.23;81.43
75629;BME280;64213;46.452;16.994;2023-02-18T04:04:32;100523.41;;;6.20;81.12
75629;BME280;64213;46.452;16.994;2023-02-18T04:07:34;100519.81;;;6.22;81.45
75629;BME280;64213;46.452;16.994;2023-02-18T04:10:37;100520.91;;;6.17;81.25
75629;BME280;64213;46.452;16.994;2023-02-18T04:13:39;100513.06;;;6.15;81.20
75629;BME280;64213;46.452;16.994;2023-02-18T04:16:41;100511.47;;;6.11;81.47
75629;BME280;64213;46.452;16.994;2023-02-18T04:19:44;100493.88;;;6.13;81.35
75629;BME280;64213;46.452;16.994;2023-02-18T04:22:47;100494.75;;;6.14;81.34
75629;BME280;64213;46.452;16.994;2023-02-18T04:25:49;100498.34;;;6.11;81.42
75629;BME280;64213;46.452;16.994;2023-02-18T04:28:52;100493.09;;;6.11;81.29
75629;BME280;64213;46.452;16.994;2023-02-18T04:31:54;100503.28;;;6.19;81.34
75629;BME280;64213;46.452;16.994;2023-02-18T04:34:57;100501.53;;;6.19;81.42
75629;BME280;64213;46.452;16.994;2023-02-18T04:37:59;100503.12;;;6.23;81.16
75629;BME280;64213;46.452;16.994;2023-02-18T04:41:01;100503.75;;;6.30;80.91
75629;BME280;64213;46.452;16.994;2023-02-18T04:44:04;100500.03;;;6.36;80.76
75629;BME280;64213;46.452;16.994;2023-02-18T04:47:06;100500.88;;;6.36;80.58
75629;BME280;64213;46.452;16.994;2023-02-18T04:50:10;100507.09;;;6.34;80.75
75629;BME280;64213;46.452;16.994;2023-02-18T04:53:14;100502.66;;;6.36;80.82
75629;BME280;64213;46.452;16.994;2023-02-18T04:56:17;100519.06;;;6.41;80.73
75629;BME280;64213;46.452;16.994;2023-02-18T04:59:19;100506.88;;;6.40;80.47
75629;BME280;64213;46.452;16.994;2023-02-18T05:02:22;100506.75;;;6.43;80.34
75629;BME280;64213;46.452;16.994;2023-02-18T05:05:24;100511.87;;;6.46;80.28
75629;BME280;64213;46.452;16.994;2023-02-18T05:08:26;100511.75;;;6.49;80.26
75629;BME280;64213;46.452;16.994;2023-02-18T05:11:29;100506.44;;;6.50;80.05
75629;BME280;64213;46.452;16.994;2023-02-18T05:14:31;100503.69;;;6.53;80.10
75629;BME280;64213;46.452;16.994;2023-02-18T05:17:34;100496.47;;;6.59;79.77
75629;BME280;64213;46.452;16.994;2023-02-18T05:20:36;100504.41;;;6.57;79.90
75629;BME280;64213;46.452;16.994;2023-02-18T05:23:39;100510.34;;;6.62;79.68
75629;BME280;64213;46.452;16.994;2023-02-18T05:26:41;100509.50;;;6.62;79.64
75629;BME280;64213;46.452;16.994;2023-02-18T05:29:44;100513.69;;;6.66;79.69
75629;BME280;64213;46.452;16.994;2023-02-18T05:32:47;100511.94;;;6.66;79.49
75629;BME280;64213;46.452;16.994;2023-02-18T05:35:50;100521.66;;;6.64;79.67
75629;BME280;64213;46.452;16.994;2023-02-18T05:38:52;100521.66;;;6.64;79.58
75629;BME280;64213;46.452;16.994;2023-02-18T05:41:55;100530.31;;;6.66;79.58
75629;BME280;64213;46.452;16.994;2023-02-18T05:44:58;100522.56;;;6.63;79.60
75629;BME280;64213;46.452;16.994;2023-02-18T05:48:00;100526.19;;;6.61;79.69
75629;BME280;64213;46.452;16.994;2023-02-18T05:51:03;100532.31;;;6.61;79.75
75629;BME280;64213;46.452;16.994;2023-02-18T05:54:05;100532.34;;;6.60;79.79
75629;BME280;64213;46.452;16.994;2023-02-18T05:57:08;100536.81;;;6.58;79.88
75629;BME280;64213;46.452;16.994;2023-02-18T06:00:11;100537.91;;;6.52;79.90
75629;BME280;64213;46.452;16.994;2023-02-18T06:03:13;100536.56;;;6.42;80.18
75629;BME280;64213;46.452;16.994;2023-02-18T06:06:16;100523.78;;;6.33;80.54
75629;BME280;64213;46.452;16.994;2023-02-18T06:09:18;100526.75;;;6.23;80.94
75629;BME280;64213;46.452;16.994;2023-02-18T06:12:20;100529.66;;;6.16;81.39
75629;BME280;64213;46.452;16.994;2023-02-18T06:15:23;100546.53;;;6.10;81.65
75629;BME280;64213;46.452;16.994;2023-02-18T06:18:25;100555.19;;;6.12;81.63
75629;BME280;64213;46.452;16.994;2023-02-18T06:21:28;100549.66;;;6.20;81.54
75629;BME280;64213;46.452;16.994;2023-02-18T06:24:30;100545.81;;;6.28;81.41
75629;BME280;64213;46.452;16.994;2023-02-18T06:27:33;100547.56;;;6.29;81.09
75629;BME280;64213;46.452;16.994;2023-02-18T06:30:37;100549.13;;;6.34;80.89
75629;BME280;64213;46.452;16.994;2023-02-18T06:33:40;100552.69;;;6.33;80.69
75629;BME280;64213;46.452;16.994;2023-02-18T06:36:42;100560.56;;;6.33;80.99
75629;BME280;64213;46.452;16.994;2023-02-18T06:39:45;100571.97;;;6.32;80.91
75629;BME280;64213;46.452;16.994;2023-02-18T06:42:47;100567.59;;;6.32;80.89
75629;BME280;64213;46.452;16.994;2023-02-18T06:45:50;100564.91;;;6.34;81.09
75629;BME280;64213;46.452;16.994;2023-02-18T06:48:52;100570.00;;;6.38;80.73
75629;BME280;64213;46.452;16.994;2023-02-18T06:51:55;100569.00;;;6.41;80.76
75629;BME280;64213;46.452;16.994;2023-02-18T06:54:57;100574.94;;;6.46;80.71
75629;BME280;64213;46.452;16.994;2023-02-18T06:58:00;100574.75;;;6.50;80.62
75629;BME280;64213;46.452;16.994;2023-02-18T07:01:02;100586.88;;;6.55;80.31
75629;BME280;64213;46.452;16.994;2023-02-18T07:04:05;100583.25;;;6.57;80.22
75629;BME280;64213;46.452;16.994;2023-02-18T07:07:08;100583.41;;;6.54;80.36
75629;BME280;64213;46.452;16.994;2023-02-18T07:10:16;100591.22;;;6.56;80.38
75629;BME280;64213;46.452;16.994;2023-02-18T07:13:24;100599.09;;;6.56;80.51
75629;BME280;64213;46.452;16.994;2023-02-18T07:16:27;100603.31;;;6.60;80.60
75629;BME280;64213;46.452;16.994;2023-02-18T07:19:30;100608.44;;;6.63;80.41
75629;BME280;64213;46.452;16.994;2023-02-18T07:22:33;100607.59;;;6.62;80.37
75629;BME280;64213;46.452;16.994;2023-02-18T07:25:37;100608.34;;;6.66;80.35
75629;BME280;64213;46.452;16.994;2023-02-18T07:28:40;100605.59;;;6.69;80.09
75629;BME280;64213;46.452;16.994;2023-02-18T07:31:42;100589.78;;;6.70;79.99
75629;BME280;64213;46.452;16.994;2023-02-18T07:34:45;100591.47;;;6.71;80.02
75629;BME280;64213;46.452;16.994;2023-02-18T07:37:48;100598.44;;;6.72;80.09
75629;BME280;64213;46.452;16.994;2023-02-18T07:40:52;100600.91;;;6.77;80.03
75629;BME280;64213;46.452;16.994;2023-02-18T07:43:55;100600.81;;;6.79;79.83
75629;BME280;64213;46.452;16.994;2023-02-18T07:46:57;100598.06;;;6.82;79.87
75629;BME280;64213;46.452;16.994;2023-02-18T07:49:59;100601.50;;;6.84;79.79
75629;BME280;64213;46.452;16.994;2023-02-18T07:53:03;100604.88;;;6.87;79.64
75629;BME280;64213;46.452;16.994;2023-02-18T07:56:06;100607.38;;;6.90;79.54
75629;BME280;64213;46.452;16.994;2023-02-18T07:59:10;100605.59;;;6.91;79.46
75629;BME280;64213;46.452;16.994;2023-02-18T08:02:21;100595.03;;;6.92;79.40
75629;BME280;64213;46.452;16.994;2023-02-18T08:05:24;100602.72;;;6.97;79.31
75629;BME280;64213;46.452;16.994;2023-02-18T08:08:28;100609.69;;;6.98;79.10
75629;BME280;64213;46.452;16.994;2023-02-18T08:11:32;100607.63;;;7.06;79.01
75629;BME280;64213;46.452;16.994;2023-02-18T08:14:34;100612.88;;;7.06;78.94
75629;BME280;64213;46.452;16.994;2023-02-18T08:17:37;100614.47;;;7.10;78.90
75629;BME280;64213;46.452;16.994;2023-02-18T08:20:39;100612.53;;;7.15;78.83
75629;BME280;64213;46.452;16.994;2023-02-18T08:23:42;100611.66;;;7.15;78.70
75629;BME280;64213;46.452;16.994;2023-02-18T08:26:45;100616.84;;;7.16;78.76
75629;BME280;64213;46.452;16.994;2023-02-18T08:30:02;100624.50;;;7.22;78.54
75629;BME280;64213;46.452;16.994;2023-02-18T08:33:04;100635.38;;;7.35;78.51
75629;BME280;64213;46.452;16.994;2023-02-18T08:36:07;100632.66;;;7.37;78.04
75629;BME280;64213;46.452;16.994;2023-02-18T08:39:11;100631.62;;;7.41;77.95
75629;BME280;64213;46.452;16.994;2023-02-18T08:42:14;100623.66;;;7.42;77.85
75629;BME280;64213;46.452;16.994;2023-02-18T08:45:16;100628.75;;;7.47;77.66
75629;BME280;64213;46.452;16.994;2023-02-18T08:48:18;100633.91;;;7.50;77.53
75629;BME280;64213;46.452;16.994;2023-02-18T08:51:22;100647.41;;;7.63;77.29
75629;BME280;64213;46.452;16.994;2023-02-18T08:54:24;100639.25;;;7.69;77.01
75629;BME280;64213;46.452;16.994;2023-02-18T08:57:27;100637.25;;;7.74;76.87
75629;BME280;64213;46.452;16.994;2023-02-18T09:00:30;100642.72;;;7.90;76.42
75629;BME280;64213;46.452;16.994;2023-02-18T09:03:33;100641.84;;;8.10;75.84
75629;BME280;64213;46.452;16.994;2023-02-18T09:06:37;100622.28;;;8.15;75.28
75629;BME280;64213;46.452;16.994;2023-02-18T09:09:39;100632.12;;;8.31;75.23
75629;BME280;64213;46.452;16.994;2023-02-18T09:12:43;100626.63;;;8.35;74.72
75629;BME280;64213;46.452;16.994;2023-02-18T09:15:45;100636.66;;;8.48;74.54
75629;BME280;64213;46.452;16.994;2023-02-18T09:18:56;100636.91;;;8.62;74.12
75629;BME280;64213;46.452;16.994;2023-02-18T09:21:59;100632.25;;;8.67;73.96
75629;BME280;64213;46.452;16.994;2023-02-18T09:25:02;100641.88;;;8.68;73.66
75629;BME280;64213;46.452;16.994;2023-02-18T09:28:05;100628.47;;;8.73;73.73
75629;BME280;64213;46.452;16.994;2023-02-18T09:31:13;100623.75;;;8.79;73.28
75629;BME280;64213;46.452;16.994;2023-02-18T09:34:17;100628.69;;;8.87;72.91
75629;BME280;64213;46.452;16.994;2023-02-18T09:37:19;100625.28;;;9.02;72.92
75629;BME280;64213;46.452;16.994;2023-02-18T09:40:29;100628.97;;;9.17;72.26
75629;BME280;64213;46.452;16.994;2023-02-18T09:43:38;100624.19;;;9.43;71.15
75629;BME280;64213;46.452;16.994;2023-02-18T09:46:59;100621.09;;;9.69;70.40
75629;BME280;64213;46.452;16.994;2023-02-18T09:50:27;100621.78;;;9.90;69.05
75629;BME280;64213;46.452;16.994;2023-02-18T09:53:30;100615.12;;;9.83;69.21
75629;BME280;64213;46.452;16.994;2023-02-18T09:56:32;100608.72;;;9.87;69.00
75629;BME280;64213;46.452;16.994;2023-02-18T09:59:41;100599.84;;;9.88;69.08
75629;BME280;64213;46.452;16.994;2023-02-18T10:02:55;100595.31;;;10.08;68.43
75629;BME280;64213;46.452;16.994;2023-02-18T10:06:26;100601.12;;;10.14;67.84
75629;BME280;64213;46.452;16.994;2023-02-18T10:09:36;100602.59;;;10.37;67.12
75629;BME280;64213;46.452;16.994;2023-02-18T10:12:43;100595.53;;;10.69;66.38
75629;BME280;64213;46.452;16.994;2023-02-18T10:15:47;100581.97;;;10.76;66.23
75629;BME280;64213;46.452;16.994;2023-02-18T10:18:58;100574.72;;;11.09;64.92
75629;BME280;64213;46.452;16.994;2023-02-18T10:22:04;100582.59;;;11.71;63.37
75629;BME280;64213;46.452;16.994;2023-02-18T10:25:07;100569.84;;;12.21;61.92
75629;BME280;64213;46.452;16.994;2023-02-18T10:28:11;100586.03;;;12.30;60.66
75629;BME280;64213;46.452;16.994;2023-02-18T10:31:19;100585.38;;;12.41;60.25
75629;BME280;64213;46.452;16.994;2023-02-18T10:38:19;100575.19;;;12.62;59.48
75629;BME280;64213;46.452;16.994;2023-02-18T10:45:09;100580.56;;;12.05;60.31
75629;BME280;64213;46.452;16.994;2023-02-18T10:52:04;100568.41;;;11.86;61.04
75629;BME280;64213;46.452;16.994;2023-02-18T10:55:13;100583.56;;;11.99;60.99
75629;BME280;64213;46.452;16.994;2023-02-18T10:58:24;100571.94;;;11.87;61.52
75629;BME280;64213;46.452;16.994;2023-02-18T11:01:27;100571.31;;;11.82;61.90
75629;BME280;64213;46.452;16.994;2023-02-18T11:04:36;100577.47;;;11.68;62.07
75629;BME280;64213;46.452;16.994;2023-02-18T11:07:45;100568.00;;;11.78;61.86
75629;BME280;64213;46.452;16.994;2023-02-18T11:10:50;100561.81;;;11.63;62.65
75629;BME280;64213;46.452;16.994;2023-02-18T11:14:03;100553.06;;;11.77;62.55
75629;BME280;64213;46.452;16.994;2023-02-18T11:17:09;100549.47;;;11.93;62.06
75629;BME280;64213;46.452;16.994;2023-02-18T11:23:45;100541.13;;;12.42;60.98
75629;BME280;64213;46.452;16.994;2023-02-18T11:26:48;100543.31;;;12.35;61.53
75629;BME280;64213;46.452;16.994;2023-02-18T11:29:53;100540.56;;;12.37;61.41
75629;BME280;64213;46.452;16.994;2023-02-18T11:33:01;100535.75;;;12.15;61.72
75629;BME280;64213;46.452;16.994;2023-02-18T11:36:27;100536.59;;;12.15;62.05
75629;BME280;64213;46.452;16.994;2023-02-18T11:39:30;100527.97;;;11.83;62.78
75629;BME280;64213;46.452;16.994;2023-02-18T11:42:33;100518.50;;;11.79;62.73
75629;BME280;64213;46.452;16.994;2023-02-18T11:45:35;100511.66;;;11.60;63.48
75629;BME280;64213;46.452;16.994;2023-02-18T11:48:38;100514.97;;;11.64;63.74
75629;BME280;64213;46.452;16.994;2023-02-18T11:51:41;100509.50;;;11.53;63.95
75629;BME280;64213;46.452;16.994;2023-02-18T11:54:59;100510.34;;;11.68;63.99
75629;BME280;64213;46.452;16.994;2023-02-18T11:58:04;100491.69;;;11.83;63.99
75629;BME280;64213;46.452;16.994;2023-02-18T12:01:14;100480.00;;;11.88;63.50
75629;BME280;64213;46.452;16.994;2023-02-18T12:04:32;100470.13;;;11.90;63.23
75629;BME280;64213;46.452;16.994;2023-02-18T12:07:43;100458.13;;;11.84;63.41
75629;BME280;64213;46.452;16.994;2023-02-18T12:10:49;100461.06;;;11.94;63.28
75629;BME280;64213;46.452;16.994;2023-02-18T12:13:55;100449.66;;;12.06;62.51
75629;BME280;64213;46.452;16.994;2023-02-18T12:24:11;100415.63;;;12.00;61.49
75629;BME280;64213;46.452;16.994;2023-02-18T12:27:30;100416.94;;;11.93;61.91
75629;BME280;64213;46.452;16.994;2023-02-18T13:04:47;100326.06;;;11.76;63.87
75629;BME280;64213;46.452;16.994;2023-02-18T13:14:30;100313.50;;;11.66;64.92
75629;BME280;64213;46.452;16.994;2023-02-18T13:17:36;100307.81;;;11.72;65.15
75629;BME280;64213;46.452;16.994;2023-02-18T13:20:59;100309.44;;;11.60;65.31
75629;BME280;64213;46.452;16.994;2023-02-18T13:24:10;100303.03;;;11.50;65.54
75629;BME280;64213;46.452;16.994;2023-02-18T13:31:29;100295.56;;;11.42;66.26
75629;BME280;64213;46.452;16.994;2023-02-18T13:40:59;100283.31;;;11.27;66.10
75629;BME280;64213;46.452;16.994;2023-02-18T13:44:38;100283.41;;;11.25;66.26
75629;BME280;64213;46.452;16.994;2023-02-18T13:47:47;100286.16;;;11.24;66.41
75629;BME280;64213;46.452;16.994;2023-02-18T13:50:53;100281.13;;;11.19;66.70
75629;BME280;64213;46.452;16.994;2023-02-18T13:57:19;100285.50;;;11.06;66.89
75629;BME280;64213;46.452;16.994;2023-02-18T14:00:33;100276.91;;;11.02;66.95
75629;BME280;64213;46.452;16.994;2023-02-18T14:03:53;100274.34;;;11.01;67.14
75629;BME280;64213;46.452;16.994;2023-02-18T14:10:35;100264.34;;;10.91;67.42
75629;BME280;64213;46.452;16.994;2023-02-18T14:13:48;100262.62;;;10.90;67.84
75629;BME280;64213;46.452;16.994;2023-02-18T14:20:26;100259.69;;;10.81;67.77
75629;BME280;64213;46.452;16.994;2023-02-18T14:26:43;100250.13;;;10.78;67.96
75629;BME280;64213;46.452;16.994;2023-02-18T14:29:50;100233.72;;;10.73;68.33
75629;BME280;64213;46.452;16.994;2023-02-18T14:32:57;100235.69;;;10.69;68.43
75629;BME280;64213;46.452;16.994;2023-02-18T14:39:48;100206.78;;;10.66;68.67
75629;BME280;64213;46.452;16.994;2023-02-18T14:46:28;100198.09;;;10.64;68.76
75629;BME280;64213;46.452;16.994;2023-02-18T14:49:42;100190.34;;;10.61;68.66
75629;BME280;64213;46.452;16.994;2023-02-18T14:56:02;100187.22;;;10.55;68.83
75629;BME280;64213;46.452;16.994;2023-02-18T14:59:07;100190.81;;;10.54;69.03
75629;BME280;64213;46.452;16.994;2023-02-18T15:02:22;100188.19;;;10.54;69.33
75629;BME280;64213;46.452;16.994;2023-02-18T15:05:29;100180.44;;;10.51;69.32
75629;BME280;64213;46.452;16.994;2023-02-18T15:08:37;100164.28;;;10.41;69.46
75629;BME280;64213;46.452;16.994;2023-02-18T15:11:45;100171.19;;;10.43;69.54
75629;BME280;64213;46.452;16.994;2023-02-18T15:14:52;100168.63;;;10.42;69.63
75629;BME280;64213;46.452;16.994;2023-02-18T15:17:58;100160.78;;;10.40;69.68
75629;BME280;64213;46.452;16.994;2023-02-18T15:21:04;100149.44;;;10.38;69.63
75629;BME280;64213;46.452;16.994;2023-02-18T15:27:25;100142.66;;;10.34;69.98
75629;BME280;64213;46.452;16.994;2023-02-18T15:30:32;100141.13;;;10.30;69.96
75629;BME280;64213;46.452;16.994;2023-02-18T15:33:42;100126.31;;;10.28;69.97
75629;BME280;64213;46.452;16.994;2023-02-18T15:36:49;100124.53;;;10.28;70.06
75629;BME280;64213;46.452;16.994;2023-02-18T15:39:52;100122.09;;;10.23;70.09
75629;BME280;64213;46.452;16.994;2023-02-18T15:42:59;100122.03;;;10.25;70.08
75629;BME280;64213;46.452;16.994;2023-02-18T15:46:10;100120.50;;;10.21;70.15
75629;BME280;64213;46.452;16.994;2023-02-18T15:49:19;100112.88;;;10.16;70.37
75629;BME280;64213;46.452;16.994;2023-02-18T15:52:32;100106.91;;;10.13;70.49
75629;BME280;64213;46.452;16.994;2023-02-18T15:55:38;100105.13;;;10.13;70.58
75629;BME280;64213;46.452;16.994;2023-02-18T15:58:42;100107.00;;;10.11;70.41
75629;BME280;64213;46.452;16.994;2023-02-18T16:01:53;100102.59;;;10.12;70.43
75629;BME280;64213;46.452;16.994;2023-02-18T16:04:58;100090.28;;;10.11;70.34
75629;BME280;64213;46.452;16.994;2023-02-18T16:08:16;100091.25;;;10.10;70.46
75629;BME280;64213;46.452;16.994;2023-02-18T16:11:28;100089.56;;;10.09;70.63
75629;BME280;64213;46.452;16.994;2023-02-18T16:14:45;100099.34;;;10.07;70.83
75629;BME280;64213;46.452;16.994;2023-02-18T16:17:49;100093.50;;;10.01;70.80
75629;BME280;64213;46.452;16.994;2023-02-18T16:20:55;100083.88;;;10.00;70.80
75629;BME280;64213;46.452;16.994;2023-02-18T16:24:02;100089.81;;;10.04;71.03
75629;BME280;64213;46.452;16.994;2023-02-18T16:27:05;100092.00;;;9.97;71.07
75629;BME280;64213;46.452;16.994;2023-02-18T16:30:22;100086.50;;;10.00;70.96
75629;BME280;64213;46.452;16.994;2023-02-18T16:33:25;100084.72;;;10.01;70.96
75629;BME280;64213;46.452;16.994;2023-02-18T16:36:28;100077.63;;;10.01;70.92
75629;BME280;64213;46.452;16.994;2023-02-18T16:39:33;100088.50;;;9.97;71.18
75629;BME280;64213;46.452;16.994;2023-02-18T16:42:36;100084.63;;;10.02;70.95
75629;BME280;64213;46.452;16.994;2023-02-18T16:45:44;100080.00;;;10.06;70.88
75629;BME280;64213;46.452;16.994;2023-02-18T16:48:53;100074.06;;;10.17;71.28
75629;BME280;64213;46.452;16.994;2023-02-18T16:52:01;100069.00;;;10.28;71.15
75629;BME280;64213;46.452;16.994;2023-02-18T16:55:18;100060.66;;;10.48;70.47
75629;BME280;64213;46.452;16.994;2023-02-18T16:58:35;100067.16;;;10.43;69.81
75629;BME280;64213;46.452;16.994;2023-02-18T17:01:46;100070.97;;;10.39;69.77
75629;BME280;64213;46.452;16.994;2023-02-18T17:04:58;100067.44;;;10.24;69.83
75629;BME280;64213;46.452;16.994;2023-02-18T17:08:21;100058.59;;;10.25;69.72
75629;BME280;64213;46.452;16.994;2023-02-18T17:11:29;100059.44;;;10.25;69.47
75629;BME280;64213;46.452;16.994;2023-02-18T17:14:34;100067.75;;;10.19;69.67
75629;BME280;64213;46.452;16.994;2023-02-18T17:17:38;100053.47;;;10.08;69.64
75629;BME280;64213;46.452;16.994;2023-02-18T17:20:42;100060.00;;;10.16;69.62
75629;BME280;64213;46.452;16.994;2023-02-18T17:23:48;100059.41;;;10.11;69.74
75629;BME280;64213;46.452;16.994;2023-02-18T17:26:52;100067.34;;;10.11;69.92
75629;BME280;64213;46.452;16.994;2023-02-18T17:29:56;100066.81;;;10.06;69.97
75629;BME280;64213;46.452;16.994;2023-02-18T17:33:00;100057.37;;;10.02;70.01
75629;BME280;64213;46.452;16.994;2023-02-18T17:36:04;100062.53;;;10.04;70.02
75629;BME280;64213;46.452;16.994;2023-02-18T17:39:12;100066.88;;;10.05;70.09
75629;BME280;64213;46.452;16.994;2023-02-18T17:42:17;100057.25;;;10.04;69.96
75629;BME280;64213;46.452;16.994;2023-02-18T17:45:26;100057.44;;;10.00;70.11
75629;BME280;64213;46.452;16.994;2023-02-18T17:48:31;100055.56;;;10.02;70.10
75629;BME280;64213;46.452;16.994;2023-02-18T17:51:34;100040.63;;;10.01;70.05
75629;BME280;64213;46.452;16.994;2023-02-18T17:54:41;100038.19;;;9.98;70.20
75629;BME280;64213;46.452;16.994;2023-02-18T17:57:53;100047.47;;;10.06;69.89
75629;BME280;64213;46.452;16.994;2023-02-18T18:00:57;100047.28;;;10.09;69.92
75629;BME280;64213;46.452;16.994;2023-02-18T18:04:02;100059.03;;;10.17;69.42
75629;BME280;64213;46.452;16.994;2023-02-18T18:07:06;100055.56;;;10.17;69.55
75629;BME280;64213;46.452;16.994;2023-02-18T18:10:11;100050.06;;;10.20;69.49
75629;BME280;64213;46.452;16.994;2023-02-18T18:13:28;100052.53;;;10.23;69.44
75629;BME280;64213;46.452;16.994;2023-02-18T18:16:43;100041.72;;;10.28;69.26
75629;BME280;64213;46.452;16.994;2023-02-18T18:19:50;100054.34;;;10.37;68.89
75629;BME280;64213;46.452;16.994;2023-02-18T18:22:56;100054.44;;;10.35;69.12
75629;BME280;64213;46.452;16.994;2023-02-18T18:26:03;100057.84;;;10.37;68.92